sensor_id;sensor_type;location;lat;lon;timestamp;temperature;humidity
14884;DHT22;7534;50.762;7.000;2022-07-21T00:00:18;20.00;99.90
14884;DHT22;7534;50.762;7.000;2022-07-21T00:02:45;20.00;99.90
14884;DHT22;7534;50.762;7.000;2022-07-21T00:05:12;20.30;99.90
14884;DHT22;7534;50.762;7.000;2022-07-21T00:07:38;20.00;99.90
14884;DHT22;7534;50.762;7.000;2022-07-21T00:10:04;20.00;99.90
14884;DHT22;7534;50.762;7.000;2022-07-21T00:12:38;20.00;99.90
14884;DHT22;7534;50.762;7.000;2022-07-21T00:15:08;19.80;99.90
14884;DHT22;7534;50.762;7.000;2022-07-21T00:17:35;19.70;99.90
14884;DHT22;7534;50.762;7.000;2022-07-21T00:20:02;19.70;99.90
14884;DHT22;7534;50.762;7.000;2022-07-21T00:22:29;19.80;99.90
14884;DHT22;7534;50.762;7.000;2022-07-21T00:24:55;19.80;99.90
14884;DHT22;7534;50.762;7.000;2022-07-21T00:27:21;19.80;99.90
14884;DHT22;7534;50.762;7.000;2022-07-21T00:29:46;19.60;99.90
14884;DHT22;7534;50.762;7.000;2022-07-21T00:32:13;19.70;99.90
14884;DHT22;7534;50.762;7.000;2022-07-21T00:34:43;19.70;99.90
14884;DHT22;7534;50.762;7.000;2022-07-21T00:37:10;19.70;99.90
14884;DHT22;7534;50.762;7.000;2022-07-21T00:39:36;19.80;99.90
14884;DHT22;7534;50.762;7.000;2022-07-21T00:42:03;19.80;99.90
14884;DHT22;7534;50.762;7.000;2022-07-21T00:44:29;19.70;99.90
14884;DHT22;7534;50.762;7.000;2022-07-21T00:46:57;19.50;99.90
14884;DHT22;7534;50.762;7.000;2022-07-21T00:49:23;19.60;99.90
14884;DHT22;7534;50.762;7.000;2022-07-21T00:51:50;19.60;99.90
14884;DHT22;7534;50.762;7.000;2022-07-21T00:54:17;19.80;99.90
14884;DHT22;7534;50.762;7.000;2022-07-21T00:56:45;19.70;99.90
14884;DHT22;7534;50.762;7.000;2022-07-21T00:59:12;19.70;99.90
14884;DHT22;7534;50.762;7.000;2022-07-21T01:01:38;19.70;99.90
14884;DHT22;7534;50.762;7.000;2022-07-21T01:04:04;19.80;99.90
14884;DHT22;7534;50.762;7.000;2022-07-21T01:06:30;19.80;99.90
14884;DHT22;7534;50.762;7.000;2022-07-21T01:08:57;19.80;99.90
14884;DHT22;7534;50.762;7.000;2022-07-21T01:11:24;19.50;99.90
14884;DHT22;7534;50.762;7.000;2022-07-21T01:13:51;19.60;99.90
14884;DHT22;7534;50.762;7.000;2022-07-21T01:16:17;19.40;99.90
14884;DHT22;7534;50.762;7.000;2022-07-21T01:18:44;19.30;99.90
14884;DHT22;7534;50.762;7.000;2022-07-21T01:26:22;19.10;99.90
14884;DHT22;7534;50.762;7.000;2022-07-21T01:28:48;19.10;99.90
14884;DHT22;7534;50.762;7.000;2022-07-21T01:31:14;19.20;99.90
14884;DHT22;7534;50.762;7.000;2022-07-21T01:33:41;19.10;99.90
14884;DHT22;7534;50.762;7.000;2022-07-21T01:36:07;19.10;99.90
14884;DHT22;7534;50.762;7.000;2022-07-21T01:38:33;19.40;99.90
14884;DHT22;7534;50.762;7.000;2022-07-21T01:41:18;19.50;99.90
14884;DHT22;7534;50.762;7.000;2022-07-21T01:44:02;19.60;99.90
14884;DHT22;7534;50.762;7.000;2022-07-21T01:46:32;19.50;99.90
14884;DHT22;7534;50.762;7.000;2022-07-21T01:49:00;19.60;99.90
14884;DHT22;7534;50.762;7.000;2022-07-21T01:51:26;19.70;99.90
14884;DHT22;7534;50.762;7.000;2022-07-21T01:53:53;19.60;99.90
14884;DHT22;7534;50.762;7.000;2022-07-21T01:56:24;19.70;99.90
14884;DHT22;7534;50.762;7.000;2022-07-21T01:58:52;19.60;99.90
14884;DHT22;7534;50.762;7.000;2022-07-21T02:01:22;19.80;99.90
14884;DHT22;7534;50.762;7.000;2022-07-21T02:03:49;19.70;99.90
14884;DHT22;7534;50.762;7.000;2022-07-21T02:06:15;19.60;99.90
14884;DHT22;7534;50.762;7.000;2022-07-21T02:08:41;19.70;99.90
14884;DHT22;7534;50.762;7.000;2022-07-21T02:11:10;19.70;99.90
14884;DHT22;7534;50.762;7.000;2022-07-21T02:13:38;19.70;99.90
14884;DHT22;7534;50.762;7.000;2022-07-21T02:16:04;19.70;99.90
14884;DHT22;7534;50.762;7.000;2022-07-21T02:18:31;19.70;99.90
14884;DHT22;7534;50.762;7.000;2022-07-21T02:20:57;19.70;99.90
14884;DHT22;7534;50.762;7.000;2022-07-21T02:23:24;19.50;99.90
14884;DHT22;7534;50.762;7.000;2022-07-21T02:25:51;19.60;99.90
14884;DHT22;7534;50.762;7.000;2022-07-21T02:28:19;19.50;99.90
14884;DHT22;7534;50.762;7.000;2022-07-21T02:30:46;19.60;99.90
14884;DHT22;7534;50.762;7.000;2022-07-21T02:33:12;19.50;99.90
14884;DHT22;7534;50.762;7.000;2022-07-21T02:35:39;19.60;99.90
14884;DHT22;7534;50.762;7.000;2022-07-21T02:38:06;19.70;99.90
14884;DHT22;7534;50.762;7.000;2022-07-21T02:40:33;19.70;99.90
14884;DHT22;7534;50.762;7.000;2022-07-21T02:42:59;19.70;99.90
14884;DHT22;7534;50.762;7.000;2022-07-21T02:45:26;19.60;99.90
14884;DHT22;7534;50.762;7.000;2022-07-21T02:47:54;19.50;99.90
14884;DHT22;7534;50.762;7.000;2022-07-21T02:50:21;19.50;99.90
14884;DHT22;7534;50.762;7.000;2022-07-21T02:52:48;19.50;99.90
14884;DHT22;7534;50.762;7.000;2022-07-21T02:55:15;19.40;99.90
14884;DHT22;7534;50.762;7.000;2022-07-21T02:57:41;19.40;99.90
14884;DHT22;7534;50.762;7.000;2022-07-21T03:00:09;19.20;99.90
14884;DHT22;7534;50.762;7.000;2022-07-21T03:02:35;19.20;99.90
14884;DHT22;7534;50.762;7.000;2022-07-21T03:05:02;19.00;99.90
14884;DHT22;7534;50.762;7.000;2022-07-21T03:07:29;19.10;99.90
14884;DHT22;7534;50.762;7.000;2022-07-21T03:09:54;19.10;99.90
14884;DHT22;7534;50.762;7.000;2022-07-21T03:12:20;19.10;99.90
14884;DHT22;7534;50.762;7.000;2022-07-21T03:14:46;19.10;99.90
14884;DHT22;7534;50.762;7.000;2022-07-21T03:17:12;19.10;99.90
14884;DHT22;7534;50.762;7.000;2022-07-21T03:19:37;19.10;99.90
14884;DHT22;7534;50.762;7.000;2022-07-21T03:22:04;19.20;99.90
14884;DHT22;7534;50.762;7.000;2022-07-21T03:24:30;19.20;99.90
14884;DHT22;7534;50.762;7.000;2022-07-21T03:26:56;19.30;99.90
14884;DHT22;7534;50.762;7.000;2022-07-21T03:29:22;19.40;99.90
14884;DHT22;7534;50.762;7.000;2022-07-21T03:31:48;19.30;99.90
14884;DHT22;7534;50.762;7.000;2022-07-21T03:34:13;19.40;99.90
14884;DHT22;7534;50.762;7.000;2022-07-21T03:36:39;19.40;99.90
14884;DHT22;7534;50.762;7.000;2022-07-21T03:39:06;19.50;99.90
14884;DHT22;7534;50.762;7.000;2022-07-21T03:41:32;19.40;99.90
14884;DHT22;7534;50.762;7.000;2022-07-21T03:43:57;19.20;99.90
14884;DHT22;7534;50.762;7.000;2022-07-21T03:46:23;19.10;99.90
14884;DHT22;7534;50.762;7.000;2022-07-21T03:48:49;19.10;99.90
14884;DHT22;7534;50.762;7.000;2022-07-21T03:51:15;19.10;99.90
14884;DHT22;7534;50.762;7.000;2022-07-21T03:53:40;19.10;99.90
14884;DHT22;7534;50.762;7.000;2022-07-21T03:56:06;19.00;99.90
14884;DHT22;7534;50.762;7.000;2022-07-21T03:58:32;19.00;99.90
14884;DHT22;7534;50.762;7.000;2022-07-21T04:00:58;19.00;99.90
14884;DHT22;7534;50.762;7.000;2022-07-21T04:03:24;19.00;99.90
14884;DHT22;7534;50.762;7.000;2022-07-21T04:05:49;19.10;99.90
14884;DHT22;7534;50.762;7.000;2022-07-21T04:08:15;19.20;99.90
14884;DHT22;7534;50.762;7.000;2022-07-21T04:10:42;19.30;99.90
14884;DHT22;7534;50.762;7.000;2022-07-21T04:13:11;19.40;99.90
14884;DHT22;7534;50.762;7.000;2022-07-21T04:15:38;19.40;99.90
14884;DHT22;7534;50.762;7.000;2022-07-21T04:18:07;19.40;99.90
14884;DHT22;7534;50.762;7.000;2022-07-21T04:20:34;19.50;99.90
14884;DHT22;7534;50.762;7.000;2022-07-21T04:23:00;19.60;99.90
14884;DHT22;7534;50.762;7.000;2022-07-21T04:25:26;19.70;99.90
14884;DHT22;7534;50.762;7.000;2022-07-21T04:27:53;19.80;99.90
14884;DHT22;7534;50.762;7.000;2022-07-21T04:30:23;19.90;99.90
14884;DHT22;7534;50.762;7.000;2022-07-21T04:32:48;20.00;99.90
14884;DHT22;7534;50.762;7.000;2022-07-21T04:35:15;20.20;99.90
14884;DHT22;7534;50.762;7.000;2022-07-21T04:37:42;20.30;99.90
14884;DHT22;7534;50.762;7.000;2022-07-21T04:42:37;20.90;99.90
14884;DHT22;7534;50.762;7.000;2022-07-21T04:45:04;21.70;99.90
14884;DHT22;7534;50.762;7.000;2022-07-21T04:47:31;22.10;99.90
14884;DHT22;7534;50.762;7.000;2022-07-21T04:49:57;22.50;99.90
14884;DHT22;7534;50.762;7.000;2022-07-21T04:52:22;22.70;99.90
14884;DHT22;7534;50.762;7.000;2022-07-21T04:54:48;22.80;99.90
14884;DHT22;7534;50.762;7.000;2022-07-21T04:57:14;23.10;99.90
14884;DHT22;7534;50.762;7.000;2022-07-21T04:59:39;23.20;99.90
14884;DHT22;7534;50.762;7.000;2022-07-21T05:02:05;23.40;99.90
14884;DHT22;7534;50.762;7.000;2022-07-21T05:04:32;23.70;99.90
14884;DHT22;7534;50.762;7.000;2022-07-21T05:06:58;24.10;99.90
14884;DHT22;7534;50.762;7.000;2022-07-21T05:09:23;24.00;99.90
14884;DHT22;7534;50.762;7.000;2022-07-21T05:11:50;23.80;99.90
14884;DHT22;7534;50.762;7.000;2022-07-21T05:14:15;23.60;99.90
14884;DHT22;7534;50.762;7.000;2022-07-21T05:16:42;23.40;99.90
14884;DHT22;7534;50.762;7.000;2022-07-21T05:19:08;23.00;99.90
14884;DHT22;7534;50.762;7.000;2022-07-21T05:21:34;22.50;99.90
14884;DHT22;7534;50.762;7.000;2022-07-21T05:24:00;22.00;99.90
14884;DHT22;7534;50.762;7.000;2022-07-21T05:26:26;21.70;99.90
14884;DHT22;7534;50.762;7.000;2022-07-21T05:28:51;21.40;99.90
14884;DHT22;7534;50.762;7.000;2022-07-21T05:31:17;21.20;99.90
14884;DHT22;7534;50.762;7.000;2022-07-21T05:33:43;20.90;99.90
14884;DHT22;7534;50.762;7.000;2022-07-21T05:36:08;20.80;99.90
14884;DHT22;7534;50.762;7.000;2022-07-21T05:38:34;20.50;99.90
14884;DHT22;7534;50.762;7.000;2022-07-21T05:41:00;20.30;99.90
14884;DHT22;7534;50.762;7.000;2022-07-21T05:43:28;20.10;99.90
14884;DHT22;7534;50.762;7.000;2022-07-21T05:45:55;20.00;99.90
14884;DHT22;7534;50.762;7.000;2022-07-21T05:48:22;19.80;99.90
14884;DHT22;7534;50.762;7.000;2022-07-21T05:50:48;19.80;99.90
14884;DHT22;7534;50.762;7.000;2022-07-21T05:53:14;19.70;99.90
14884;DHT22;7534;50.762;7.000;2022-07-21T05:55:40;19.50;99.90
14884;DHT22;7534;50.762;7.000;2022-07-21T05:58:06;19.40;99.90
14884;DHT22;7534;50.762;7.000;2022-07-21T06:00:32;19.40;99.90
14884;DHT22;7534;50.762;7.000;2022-07-21T06:02:57;19.30;99.90
14884;DHT22;7534;50.762;7.000;2022-07-21T06:05:23;19.40;99.90
14884;DHT22;7534;50.762;7.000;2022-07-21T06:07:49;19.40;99.90
14884;DHT22;7534;50.762;7.000;2022-07-21T06:10:15;19.30;99.90
14884;DHT22;7534;50.762;7.000;2022-07-21T06:12:41;19.30;99.90
14884;DHT22;7534;50.762;7.000;2022-07-21T06:15:08;19.30;99.90
14884;DHT22;7534;50.762;7.000;2022-07-21T06:17:44;19.40;99.90
14884;DHT22;7534;50.762;7.000;2022-07-21T06:20:12;19.50;99.90
14884;DHT22;7534;50.762;7.000;2022-07-21T06:22:38;19.40;99.90
14884;DHT22;7534;50.762;7.000;2022-07-21T06:25:05;19.60;99.90
14884;DHT22;7534;50.762;7.000;2022-07-21T06:27:31;19.60;99.90
14884;DHT22;7534;50.762;7.000;2022-07-21T06:29:58;19.60;99.90
14884;DHT22;7534;50.762;7.000;2022-07-21T06:32:25;19.70;99.90
14884;DHT22;7534;50.762;7.000;2022-07-21T06:34:51;19.60;99.90
14884;DHT22;7534;50.762;7.000;2022-07-21T06:37:17;19.80;99.90
14884;DHT22;7534;50.762;7.000;2022-07-21T06:39:42;19.90;99.90
14884;DHT22;7534;50.762;7.000;2022-07-21T06:42:08;19.90;99.90
14884;DHT22;7534;50.762;7.000;2022-07-21T06:44:34;19.70;99.90
14884;DHT22;7534;50.762;7.000;2022-07-21T06:47:00;19.70;99.90
14884;DHT22;7534;50.762;7.000;2022-07-21T06:49:31;19.80;99.90
14884;DHT22;7534;50.762;7.000;2022-07-21T06:51:57;19.90;99.90
14884;DHT22;7534;50.762;7.000;2022-07-21T06:54:22;20.40;99.90
14884;DHT22;7534;50.762;7.000;2022-07-21T06:56:48;20.90;99.90
14884;DHT22;7534;50.762;7.000;2022-07-21T06:59:14;21.60;99.90
14884;DHT22;7534;50.762;7.000;2022-07-21T07:01:40;22.90;99.90
14884;DHT22;7534;50.762;7.000;2022-07-21T07:04:06;25.50;99.90
14884;DHT22;7534;50.762;7.000;2022-07-21T07:06:32;28.80;99.90
14884;DHT22;7534;50.762;7.000;2022-07-21T07:08:57;31.10;99.90
14884;DHT22;7534;50.762;7.000;2022-07-21T07:11:23;29.60;99.90
14884;DHT22;7534;50.762;7.000;2022-07-21T07:13:49;27.80;99.90
14884;DHT22;7534;50.762;7.000;2022-07-21T07:16:14;27.90;99.90
14884;DHT22;7534;50.762;7.000;2022-07-21T07:18:40;29.40;99.90
14884;DHT22;7534;50.762;7.000;2022-07-21T07:21:06;29.80;99.90
14884;DHT22;7534;50.762;7.000;2022-07-21T07:23:31;29.60;99.90
14884;DHT22;7534;50.762;7.000;2022-07-21T07:25:57;29.40;99.90
14884;DHT22;7534;50.762;7.000;2022-07-21T07:28:23;29.40;99.90
14884;DHT22;7534;50.762;7.000;2022-07-21T07:30:48;28.90;99.90
14884;DHT22;7534;50.762;7.000;2022-07-21T07:33:14;29.00;99.90
14884;DHT22;7534;50.762;7.000;2022-07-21T07:35:40;29.50;99.90
14884;DHT22;7534;50.762;7.000;2022-07-21T07:38:06;29.10;99.90
14884;DHT22;7534;50.762;7.000;2022-07-21T07:40:32;29.00;99.90
14884;DHT22;7534;50.762;7.000;2022-07-21T07:42:58;29.00;99.90
14884;DHT22;7534;50.762;7.000;2022-07-21T07:45:24;29.60;99.90
14884;DHT22;7534;50.762;7.000;2022-07-21T07:50:19;33.40;99.90
14884;DHT22;7534;50.762;7.000;2022-07-21T07:52:45;35.40;96.70
14884;DHT22;7534;50.762;7.000;2022-07-21T07:55:11;35.20;92.40
14884;DHT22;7534;50.762;7.000;2022-07-21T07:57:39;35.60;93.40
14884;DHT22;7534;50.762;7.000;2022-07-21T08:00:10;38.00;90.50
14884;DHT22;7534;50.762;7.000;2022-07-21T08:02:39;38.90;98.00
14884;DHT22;7534;50.762;7.000;2022-07-21T08:05:05;40.40;93.00
14884;DHT22;7534;50.762;7.000;2022-07-21T08:07:34;40.00;92.80
14884;DHT22;7534;50.762;7.000;2022-07-21T08:10:06;40.10;92.10
14884;DHT22;7534;50.762;7.000;2022-07-21T08:12:32;40.60;91.20
14884;DHT22;7534;50.762;7.000;2022-07-21T08:17:24;41.60;77.90
14884;DHT22;7534;50.762;7.000;2022-07-21T08:19:50;41.40;78.30
14884;DHT22;7534;50.762;7.000;2022-07-21T08:22:16;41.50;82.70
14884;DHT22;7534;50.762;7.000;2022-07-21T08:24:42;42.40;81.30
14884;DHT22;7534;50.762;7.000;2022-07-21T08:27:08;41.80;81.00
14884;DHT22;7534;50.762;7.000;2022-07-21T08:29:34;40.50;84.40
14884;DHT22;7534;50.762;7.000;2022-07-21T08:32:00;39.00;65.30
14884;DHT22;7534;50.762;7.000;2022-07-21T08:34:26;37.60;74.60
14884;DHT22;7534;50.762;7.000;2022-07-21T08:36:53;35.50;56.90
14884;DHT22;7534;50.762;7.000;2022-07-21T08:39:19;34.80;59.70
14884;DHT22;7534;50.762;7.000;2022-07-21T08:41:45;34.20;61.50
14884;DHT22;7534;50.762;7.000;2022-07-21T08:44:10;34.10;64.50
14884;DHT22;7534;50.762;7.000;2022-07-21T08:46:39;35.60;62.50
14884;DHT22;7534;50.762;7.000;2022-07-21T08:49:07;36.80;57.40
14884;DHT22;7534;50.762;7.000;2022-07-21T08:51:35;36.70;56.00
14884;DHT22;7534;50.762;7.000;2022-07-21T08:54:02;35.80;57.50
14884;DHT22;7534;50.762;7.000;2022-07-21T08:56:29;34.90;59.50
14884;DHT22;7534;50.762;7.000;2022-07-21T08:58:55;33.60;59.30
14884;DHT22;7534;50.762;7.000;2022-07-21T09:01:21;32.40;64.30
14884;DHT22;7534;50.762;7.000;2022-07-21T09:03:51;31.30;65.20
14884;DHT22;7534;50.762;7.000;2022-07-21T09:06:16;30.60;69.80
14884;DHT22;7534;50.762;7.000;2022-07-21T09:08:48;30.10;72.20
14884;DHT22;7534;50.762;7.000;2022-07-21T09:11:24;29.90;75.00
14884;DHT22;7534;50.762;7.000;2022-07-21T09:14:12;29.60;75.50
14884;DHT22;7534;50.762;7.000;2022-07-21T09:16:53;29.90;75.40
14884;DHT22;7534;50.762;7.000;2022-07-21T09:19:25;30.60;74.30
14884;DHT22;7534;50.762;7.000;2022-07-21T09:21:55;31.50;70.20
14884;DHT22;7534;50.762;7.000;2022-07-21T09:24:28;32.20;66.80
14884;DHT22;7534;50.762;7.000;2022-07-21T09:27:12;32.50;68.00
14884;DHT22;7534;50.762;7.000;2022-07-21T09:32:22;32.90;62.30
14884;DHT22;7534;50.762;7.000;2022-07-21T09:35:09;33.00;62.10
14884;DHT22;7534;50.762;7.000;2022-07-21T09:37:39;32.70;61.30
14884;DHT22;7534;50.762;7.000;2022-07-21T09:40:11;32.50;61.30
14884;DHT22;7534;50.762;7.000;2022-07-21T09:42:40;32.60;63.20
14884;DHT22;7534;50.762;7.000;2022-07-21T09:45:15;33.00;62.40
14884;DHT22;7534;50.762;7.000;2022-07-21T09:47:43;33.20;63.70
14884;DHT22;7534;50.762;7.000;2022-07-21T09:50:13;33.00;61.40
14884;DHT22;7534;50.762;7.000;2022-07-21T09:52:45;33.20;59.20
14884;DHT22;7534;50.762;7.000;2022-07-21T09:55:15;32.40;61.40
14884;DHT22;7534;50.762;7.000;2022-07-21T09:57:43;32.00;63.40
14884;DHT22;7534;50.762;7.000;2022-07-21T10:00:12;32.20;65.50
14884;DHT22;7534;50.762;7.000;2022-07-21T10:02:43;32.50;63.70
14884;DHT22;7534;50.762;7.000;2022-07-21T10:05:12;32.10;65.10
14884;DHT22;7534;50.762;7.000;2022-07-21T10:07:42;31.30;63.10
14884;DHT22;7534;50.762;7.000;2022-07-21T10:10:10;31.60;62.60
14884;DHT22;7534;50.762;7.000;2022-07-21T10:12:37;31.20;59.80
14884;DHT22;7534;50.762;7.000;2022-07-21T10:15:04;30.90;60.20
14884;DHT22;7534;50.762;7.000;2022-07-21T10:17:31;32.10;58.70
14884;DHT22;7534;50.762;7.000;2022-07-21T10:22:47;34.50;52.90
14884;DHT22;7534;50.762;7.000;2022-07-21T10:25:38;34.80;51.50
14884;DHT22;7534;50.762;7.000;2022-07-21T10:30:47;34.00;55.20
14884;DHT22;7534;50.762;7.000;2022-07-21T10:33:20;33.30;54.50
14884;DHT22;7534;50.762;7.000;2022-07-21T10:36:07;32.00;55.80
14884;DHT22;7534;50.762;7.000;2022-07-21T10:38:34;31.40;58.90
14884;DHT22;7534;50.762;7.000;2022-07-21T10:41:02;30.70;60.80
14884;DHT22;7534;50.762;7.000;2022-07-21T10:45:57;29.90;63.50
14884;DHT22;7534;50.762;7.000;2022-07-21T10:51:04;28.70;66.70
14884;DHT22;7534;50.762;7.000;2022-07-21T10:53:33;28.40;69.10
14884;DHT22;7534;50.762;7.000;2022-07-21T10:56:00;28.00;71.70
14884;DHT22;7534;50.762;7.000;2022-07-21T10:58:39;27.80;72.60
14884;DHT22;7534;50.762;7.000;2022-07-21T11:03:47;27.30;76.10
14884;DHT22;7534;50.762;7.000;2022-07-21T11:06:32;27.70;75.90
14884;DHT22;7534;50.762;7.000;2022-07-21T11:11:37;28.30;72.10
14884;DHT22;7534;50.762;7.000;2022-07-21T11:19:46;28.80;73.50
14884;DHT22;7534;50.762;7.000;2022-07-21T11:22:26;29.20;74.40
14884;DHT22;7534;50.762;7.000;2022-07-21T11:25:04;29.40;71.80
14884;DHT22;7534;50.762;7.000;2022-07-21T11:27:33;29.50;74.60
14884;DHT22;7534;50.762;7.000;2022-07-21T11:30:07;29.40;74.60
14884;DHT22;7534;50.762;7.000;2022-07-21T11:32:34;29.30;74.00
14884;DHT22;7534;50.762;7.000;2022-07-21T11:35:03;28.70;74.70
14884;DHT22;7534;50.762;7.000;2022-07-21T11:40:08;28.10;76.90
14884;DHT22;7534;50.762;7.000;2022-07-21T11:42:43;27.60;80.10
14884;DHT22;7534;50.762;7.000;2022-07-21T11:45:11;27.00;81.50
14884;DHT22;7534;50.762;7.000;2022-07-21T11:47:39;26.60;86.30
14884;DHT22;7534;50.762;7.000;2022-07-21T11:50:10;25.90;90.60
14884;DHT22;7534;50.762;7.000;2022-07-21T11:52:39;25.60;93.60
14884;DHT22;7534;50.762;7.000;2022-07-21T11:55:08;25.20;94.70
14884;DHT22;7534;50.762;7.000;2022-07-21T11:57:35;24.70;96.60
14884;DHT22;7534;50.762;7.000;2022-07-21T12:00:02;24.30;97.80
14884;DHT22;7534;50.762;7.000;2022-07-21T12:02:32;23.60;99.20
14884;DHT22;7534;50.762;7.000;2022-07-21T12:05:08;22.90;99.90
14884;DHT22;7534;50.762;7.000;2022-07-21T12:07:45;22.30;99.90
14884;DHT22;7534;50.762;7.000;2022-07-21T12:10:22;22.00;99.90
14884;DHT22;7534;50.762;7.000;2022-07-21T12:13:01;21.90;99.90
14884;DHT22;7534;50.762;7.000;2022-07-21T12:15:32;21.50;99.90
14884;DHT22;7534;50.762;7.000;2022-07-21T12:18:34;21.40;99.90
14884;DHT22;7534;50.762;7.000;2022-07-21T12:21:04;21.40;99.90
14884;DHT22;7534;50.762;7.000;2022-07-21T12:23:31;21.30;99.90
14884;DHT22;7534;50.762;7.000;2022-07-21T12:25:59;21.20;99.90
14884;DHT22;7534;50.762;7.000;2022-07-21T12:28:45;21.30;99.90
14884;DHT22;7534;50.762;7.000;2022-07-21T12:31:17;21.30;99.90
14884;DHT22;7534;50.762;7.000;2022-07-21T12:33:47;21.30;99.90
14884;DHT22;7534;50.762;7.000;2022-07-21T12:36:14;21.20;99.90
14884;DHT22;7534;50.762;7.000;2022-07-21T12:38:40;21.20;99.90
14884;DHT22;7534;50.762;7.000;2022-07-21T12:41:13;21.30;99.90
14884;DHT22;7534;50.762;7.000;2022-07-21T12:43:41;21.20;99.90
14884;DHT22;7534;50.762;7.000;2022-07-21T12:46:15;21.20;99.90
14884;DHT22;7534;50.762;7.000;2022-07-21T12:48:44;21.20;99.90
14884;DHT22;7534;50.762;7.000;2022-07-21T12:51:21;21.30;99.90
14884;DHT22;7534;50.762;7.000;2022-07-21T12:53:51;21.30;99.90
14884;DHT22;7534;50.762;7.000;2022-07-21T12:56:23;21.30;99.90
14884;DHT22;7534;50.762;7.000;2022-07-21T12:58:57;21.40;99.90
14884;DHT22;7534;50.762;7.000;2022-07-21T13:01:26;21.40;99.90
14884;DHT22;7534;50.762;7.000;2022-07-21T13:03:53;21.40;99.90
14884;DHT22;7534;50.762;7.000;2022-07-21T13:06:20;21.40;99.90
14884;DHT22;7534;50.762;7.000;2022-07-21T13:08:47;21.70;99.90
14884;DHT22;7534;50.762;7.000;2022-07-21T13:11:16;21.50;99.90
14884;DHT22;7534;50.762;7.000;2022-07-21T13:13:44;21.40;99.90
14884;DHT22;7534;50.762;7.000;2022-07-21T13:16:11;21.20;99.90
14884;DHT22;7534;50.762;7.000;2022-07-21T13:18:37;21.30;99.90
14884;DHT22;7534;50.762;7.000;2022-07-21T13:21:03;21.10;99.90
14884;DHT22;7534;50.762;7.000;2022-07-21T13:23:30;20.90;99.90
14884;DHT22;7534;50.762;7.000;2022-07-21T13:25:56;20.90;99.90
14884;DHT22;7534;50.762;7.000;2022-07-21T13:28:21;21.10;99.90
14884;DHT22;7534;50.762;7.000;2022-07-21T13:30:47;20.90;99.90
14884;DHT22;7534;50.762;7.000;2022-07-21T13:33:14;20.90;99.90
14884;DHT22;7534;50.762;7.000;2022-07-21T13:35:40;20.90;99.90
14884;DHT22;7534;50.762;7.000;2022-07-21T13:38:07;20.90;99.90
14884;DHT22;7534;50.762;7.000;2022-07-21T13:40:32;20.80;99.90
14884;DHT22;7534;50.762;7.000;2022-07-21T13:42:58;20.70;99.90
14884;DHT22;7534;50.762;7.000;2022-07-21T13:45:24;20.90;99.90
14884;DHT22;7534;50.762;7.000;2022-07-21T13:47:50;21.00;99.90
14884;DHT22;7534;50.762;7.000;2022-07-21T13:50:16;20.90;99.90
14884;DHT22;7534;50.762;7.000;2022-07-21T13:52:41;20.90;99.90
14884;DHT22;7534;50.762;7.000;2022-07-21T13:55:08;20.90;99.90
14884;DHT22;7534;50.762;7.000;2022-07-21T13:57:35;21.10;99.90
14884;DHT22;7534;50.762;7.000;2022-07-21T14:00:08;21.30;99.90
14884;DHT22;7534;50.762;7.000;2022-07-21T14:02:35;21.40;99.90
14884;DHT22;7534;50.762;7.000;2022-07-21T14:05:02;21.50;99.90
14884;DHT22;7534;50.762;7.000;2022-07-21T14:07:29;21.40;99.90
14884;DHT22;7534;50.762;7.000;2022-07-21T14:09:55;21.60;99.90
14884;DHT22;7534;50.762;7.000;2022-07-21T14:12:20;21.60;99.90
14884;DHT22;7534;50.762;7.000;2022-07-21T14:14:56;21.60;99.90
14884;DHT22;7534;50.762;7.000;2022-07-21T14:17:22;21.70;99.90
14884;DHT22;7534;50.762;7.000;2022-07-21T14:19:48;21.70;99.90
14884;DHT22;7534;50.762;7.000;2022-07-21T14:22:17;21.70;99.90
14884;DHT22;7534;50.762;7.000;2022-07-21T14:24:47;21.80;99.90
14884;DHT22;7534;50.762;7.000;2022-07-21T14:27:32;21.80;99.90
14884;DHT22;7534;50.762;7.000;2022-07-21T14:29:59;21.50;99.90
14884;DHT22;7534;50.762;7.000;2022-07-21T14:32:26;20.90;99.90
14884;DHT22;7534;50.762;7.000;2022-07-21T14:34:53;20.70;99.90
14884;DHT22;7534;50.762;7.000;2022-07-21T14:37:19;20.50;99.90
14884;DHT22;7534;50.762;7.000;2022-07-21T14:39:46;20.20;99.90
14884;DHT22;7534;50.762;7.000;2022-07-21T14:42:14;20.00;99.90
14884;DHT22;7534;50.762;7.000;2022-07-21T14:44:41;19.90;99.90
14884;DHT22;7534;50.762;7.000;2022-07-21T14:47:08;19.80;99.90
14884;DHT22;7534;50.762;7.000;2022-07-21T14:49:41;19.70;99.90
14884;DHT22;7534;50.762;7.000;2022-07-21T14:52:07;19.70;99.90
14884;DHT22;7534;50.762;7.000;2022-07-21T14:54:33;19.70;99.90
14884;DHT22;7534;50.762;7.000;2022-07-21T14:56:59;19.60;99.90
14884;DHT22;7534;50.762;7.000;2022-07-21T14:59:25;19.40;99.90
14884;DHT22;7534;50.762;7.000;2022-07-21T15:01:51;19.40;99.90
14884;DHT22;7534;50.762;7.000;2022-07-21T15:04:17;19.40;99.90
14884;DHT22;7534;50.762;7.000;2022-07-21T15:06:50;19.40;99.90
14884;DHT22;7534;50.762;7.000;2022-07-21T15:09:16;19.40;99.90
14884;DHT22;7534;50.762;7.000;2022-07-21T15:11:43;19.40;99.90
14884;DHT22;7534;50.762;7.000;2022-07-21T15:14:08;19.50;99.90
14884;DHT22;7534;50.762;7.000;2022-07-21T15:16:34;19.60;99.90
14884;DHT22;7534;50.762;7.000;2022-07-21T15:19:00;19.70;99.90
14884;DHT22;7534;50.762;7.000;2022-07-21T15:21:26;19.70;99.90
14884;DHT22;7534;50.762;7.000;2022-07-21T15:23:52;19.70;99.90
14884;DHT22;7534;50.762;7.000;2022-07-21T15:26:18;19.80;99.90
14884;DHT22;7534;50.762;7.000;2022-07-21T15:28:44;20.00;99.90
14884;DHT22;7534;50.762;7.000;2022-07-21T15:31:10;20.00;99.90
14884;DHT22;7534;50.762;7.000;2022-07-21T15:33:36;20.20;99.90
14884;DHT22;7534;50.762;7.000;2022-07-21T15:36:02;20.50;99.90
14884;DHT22;7534;50.762;7.000;2022-07-21T15:38:28;20.70;99.90
14884;DHT22;7534;50.762;7.000;2022-07-21T15:40:54;21.00;99.90
14884;DHT22;7534;50.762;7.000;2022-07-21T15:43:20;21.30;99.90
14884;DHT22;7534;50.762;7.000;2022-07-21T15:45:46;21.80;99.90
14884;DHT22;7534;50.762;7.000;2022-07-21T15:48:12;22.20;99.90
14884;DHT22;7534;50.762;7.000;2022-07-21T15:50:39;22.40;99.90
14884;DHT22;7534;50.762;7.000;2022-07-21T15:53:05;22.50;99.90
14884;DHT22;7534;50.762;7.000;2022-07-21T15:55:32;22.30;99.90
14884;DHT22;7534;50.762;7.000;2022-07-21T15:57:58;22.00;99.90
14884;DHT22;7534;50.762;7.000;2022-07-21T16:00:24;21.90;99.90
14884;DHT22;7534;50.762;7.000;2022-07-21T16:02:51;21.60;99.90
14884;DHT22;7534;50.762;7.000;2022-07-21T16:05:20;21.40;99.90
14884;DHT22;7534;50.762;7.000;2022-07-21T16:07:49;21.50;99.90
14884;DHT22;7534;50.762;7.000;2022-07-21T16:10:16;21.20;99.90
14884;DHT22;7534;50.762;7.000;2022-07-21T16:12:43;21.20;99.90
14884;DHT22;7534;50.762;7.000;2022-07-21T16:15:10;21.20;99.90
14884;DHT22;7534;50.762;7.000;2022-07-21T16:17:37;21.50;99.90
14884;DHT22;7534;50.762;7.000;2022-07-21T16:20:05;21.50;99.90
14884;DHT22;7534;50.762;7.000;2022-07-21T16:22:33;21.60;99.90
14884;DHT22;7534;50.762;7.000;2022-07-21T16:25:00;21.60;99.90
14884;DHT22;7534;50.762;7.000;2022-07-21T16:27:27;21.60;99.90